Pagrindinis puslapis
METAR-TAF:

METAR-TAF

Oro uostai :

Bengalūras, Indija

platuma: 12-57-00N, ilguma: 077-40-06E, Aukštis: 888 m

Dabartinis oras

Ataskaita buvo paskelbta 59 minutes, ne 15:30 UTC
Vėjas 5 kt iš Pietryčių
Temperatūra 28°C
Drėgmė 40%
Slėgis 1016 hPa
Matomumas: 6000 m

METAR: VOBG 311530Z 13005KT 6000 NSC 28/13 Q1016 NOSIG

Laikas: 21:59 (16:29 UTC)

Prognozė

Ataskaita buvo paskelbta 2 valandos ir 29 minutes, ne 14:00 UTC
Prognozė galioja nuo 31 metu 15 UTC su 31 metu 24 UTC
Vėjas 5 kt iš Rytų/Pietryčių
Matomumas: 6000 m

TAF: VOBG 311400Z 3115/3124 11005KT 6000 NSC

Orai ataskaitas ir orų prognozės (METAR, TAF).

turimą stotys yra geltonos ir raudonos taškus žemėlapyje.

Perkelti pele per norėdami pamatyti stoties vardą.

Tada spustelėkite, norėdami matyti oro stebėjimo ir prognozės.

Norėdami pakeisti žemėlapį: spustelėkite ant žalios mygtukų su juodo kryžiaus žemyn,; žalią mygtuką su brūkšneliu, jei norite nutolinti; arba žalių rodyklių gretimoms žemėlapius.


METAR-TAF: